createdAt,value
2023-04-08T00:01:16.589Z,2.70
2023-04-08T00:03:45.531Z,2.60
2023-04-08T00:06:15.000Z,2.70
2023-04-08T00:08:46.736Z,2.70
2023-04-08T00:11:20.150Z,2.70
2023-04-08T00:14:04.399Z,2.70
2023-04-08T00:16:33.777Z,2.70
2023-04-08T00:19:06.973Z,2.70
2023-04-08T00:21:36.031Z,2.70
2023-04-08T00:24:07.667Z,2.70
2023-04-08T00:26:46.834Z,2.70
2023-04-08T00:29:16.068Z,2.70
2023-04-08T00:31:44.433Z,2.70
2023-04-08T00:34:18.138Z,2.70
2023-04-08T00:36:50.005Z,2.70
2023-04-08T00:39:20.745Z,2.70
2023-04-08T00:41:50.623Z,2.70
2023-04-08T00:44:30.570Z,2.70
2023-04-08T00:46:59.073Z,2.70
2023-04-08T00:49:28.329Z,2.70
2023-04-08T00:52:00.588Z,2.70
2023-04-08T00:54:29.258Z,2.70
2023-04-08T00:57:01.377Z,2.70
2023-04-08T00:59:31.682Z,2.70
2023-04-08T01:02:11.043Z,2.70
2023-04-08T01:04:51.042Z,2.70
2023-04-08T01:07:23.556Z,2.80
2023-04-08T01:09:56.419Z,2.80
2023-04-08T01:12:28.806Z,2.80
2023-04-08T01:15:01.796Z,2.80
2023-04-08T01:17:31.769Z,2.80
2023-04-08T01:20:02.068Z,2.80
2023-04-08T01:22:42.162Z,2.80
2023-04-08T01:25:18.520Z,2.80
2023-04-08T01:27:50.644Z,2.80
2023-04-08T01:30:30.694Z,2.80
2023-04-08T01:33:02.340Z,2.80
2023-04-08T01:35:32.627Z,2.90
2023-04-08T01:38:02.953Z,2.90
2023-04-08T01:40:32.380Z,2.90
2023-04-08T01:43:04.604Z,2.90
2023-04-08T01:45:33.473Z,2.90
2023-04-08T01:48:03.789Z,2.90
2023-04-08T01:50:42.960Z,2.90
2023-04-08T01:53:12.880Z,2.90
2023-04-08T01:55:43.352Z,2.90
2023-04-08T01:58:19.732Z,2.90
2023-04-08T02:00:49.204Z,2.90
2023-04-08T02:03:21.623Z,3.00
2023-04-08T02:05:53.319Z,3.00
2023-04-08T02:08:21.819Z,3.00
2023-04-08T02:10:50.423Z,3.00
2023-04-08T02:13:23.388Z,3.00
2023-04-08T02:15:58.420Z,3.00
2023-04-08T02:18:28.713Z,3.00
2023-04-08T02:21:01.973Z,3.00
2023-04-08T02:23:31.210Z,3.00
2023-04-08T02:25:59.901Z,3.00
2023-04-08T02:28:31.735Z,3.00
2023-04-08T02:31:02.344Z,3.00
2023-04-08T02:33:31.188Z,3.00
2023-04-08T02:36:00.122Z,3.00
2023-04-08T02:38:30.749Z,3.10
2023-04-08T02:40:59.884Z,3.10
2023-04-08T02:43:32.350Z,3.10
2023-04-08T02:46:03.919Z,3.10
2023-04-08T02:48:32.999Z,3.20
2023-04-08T02:51:02.350Z,3.20
2023-04-08T02:53:30.773Z,3.20
2023-04-08T02:55:59.034Z,3.20
2023-04-08T02:58:27.533Z,3.20
2023-04-08T03:00:57.745Z,3.20
2023-04-08T03:03:29.703Z,3.20
2023-04-08T03:05:59.408Z,3.20
2023-04-08T03:08:28.244Z,3.20
2023-04-08T03:10:56.788Z,3.20
2023-04-08T03:13:30.599Z,3.20
2023-04-08T03:16:00.346Z,3.20
2023-04-08T03:18:28.652Z,3.20
2023-04-08T03:20:57.620Z,3.20
2023-04-08T03:23:26.250Z,3.20
2023-04-08T03:25:54.989Z,3.30
2023-04-08T03:28:25.790Z,3.40
2023-04-08T03:31:03.276Z,3.40
2023-04-08T03:33:42.220Z,3.40
2023-04-08T03:36:10.742Z,3.40
2023-04-08T03:38:42.440Z,3.40
2023-04-08T03:41:10.918Z,3.40
2023-04-08T03:43:39.192Z,3.40
2023-04-08T03:46:07.787Z,3.40
2023-04-08T03:48:40.945Z,3.40
2023-04-08T03:51:09.342Z,3.40
2023-04-08T03:53:37.697Z,3.40
2023-04-08T03:56:06.706Z,3.40
2023-04-08T03:58:35.141Z,3.40
2023-04-08T04:01:04.252Z,3.40
2023-04-08T04:03:35.521Z,3.50
2023-04-08T04:06:05.698Z,3.50
2023-04-08T04:08:34.170Z,3.40
2023-04-08T04:11:02.557Z,3.50
2023-04-08T04:13:31.057Z,3.50
2023-04-08T04:15:59.547Z,3.50
2023-04-08T04:18:28.042Z,3.50
2023-04-08T04:20:56.545Z,3.50
2023-04-08T04:23:26.259Z,3.50
2023-04-08T04:25:54.554Z,3.40
2023-04-08T04:28:22.948Z,3.50
2023-04-08T04:30:51.418Z,3.50
2023-04-08T04:33:19.914Z,3.50
2023-04-08T04:35:51.154Z,3.50
2023-04-08T04:38:19.668Z,3.60
2023-04-08T04:40:49.499Z,3.60
2023-04-08T04:43:18.393Z,3.70
2023-04-08T04:45:47.356Z,3.70
2023-04-08T04:48:16.376Z,3.70
2023-04-08T04:50:56.322Z,3.80
2023-04-08T04:53:25.184Z,3.80
2023-04-08T04:55:58.092Z,3.80
2023-04-08T04:58:27.244Z,3.80
2023-04-08T05:00:57.729Z,3.80
2023-04-08T05:03:27.124Z,3.90
2023-04-08T05:05:56.335Z,3.80
2023-04-08T05:08:26.626Z,3.90
2023-04-08T05:10:59.875Z,3.90
2023-04-08T05:13:28.632Z,3.90
2023-04-08T05:15:57.441Z,3.90
2023-04-08T05:18:26.049Z,3.90
2023-04-08T05:23:48.615Z,3.80
2023-04-08T05:26:20.275Z,3.80
2023-04-08T05:28:52.888Z,3.80
2023-04-08T05:31:22.796Z,3.80
2023-04-08T05:33:57.013Z,3.90
2023-04-08T05:36:28.832Z,3.90
2023-04-08T05:38:59.529Z,3.80
2023-04-08T05:41:30.310Z,3.90
2023-04-08T05:43:58.709Z,3.90
2023-04-08T05:46:28.338Z,3.90
2023-04-08T05:48:56.791Z,3.90
2023-04-08T05:51:25.189Z,4.00
2023-04-08T05:53:53.785Z,4.00
2023-04-08T05:56:22.255Z,4.00
2023-04-08T05:58:52.554Z,4.00
2023-04-08T06:01:21.081Z,4.00
2023-04-08T06:03:49.546Z,4.00
2023-04-08T06:06:18.086Z,4.00
2023-04-08T06:08:47.370Z,4.00
2023-04-08T06:11:15.901Z,4.10
2023-04-08T06:13:47.455Z,4.00
2023-04-08T06:16:20.806Z,4.10
2023-04-08T06:18:53.258Z,4.10
2023-04-08T06:21:29.191Z,4.10
2023-04-08T06:23:58.539Z,4.10
2023-04-08T06:26:33.573Z,4.10
2023-04-08T06:29:05.392Z,4.10
2023-04-08T06:31:38.465Z,4.10
2023-04-08T06:34:13.339Z,4.10
2023-04-08T06:36:42.437Z,4.10
2023-04-08T06:42:07.610Z,4.10
2023-04-08T06:44:39.758Z,4.20
2023-04-08T06:47:17.742Z,4.20
2023-04-08T06:49:56.575Z,4.20
2023-04-08T06:52:34.229Z,4.20
2023-04-08T06:55:19.309Z,4.20
2023-04-08T06:57:48.509Z,4.20
2023-04-08T07:00:20.171Z,4.30
2023-04-08T07:02:52.524Z,4.40
2023-04-08T07:05:26.722Z,4.40
2023-04-08T07:07:56.699Z,4.50
2023-04-08T07:10:42.359Z,4.60
2023-04-08T07:13:10.935Z,4.60
2023-04-08T07:15:39.748Z,4.70
2023-04-08T07:18:14.456Z,4.80
2023-04-08T07:21:01.803Z,4.80
2023-04-08T07:23:33.721Z,4.80
2023-04-08T07:26:04.860Z,4.80
2023-04-08T07:28:33.861Z,4.90
2023-04-08T07:31:14.358Z,5.00
2023-04-08T07:33:44.587Z,5.00
2023-04-08T07:36:17.608Z,5.10
2023-04-08T07:38:56.239Z,5.10
2023-04-08T07:41:42.457Z,5.10
2023-04-08T07:44:11.775Z,5.10
2023-04-08T07:46:40.704Z,5.10
2023-04-08T07:49:17.622Z,5.20
2023-04-08T07:51:46.209Z,5.10
2023-04-08T07:54:17.620Z,5.20
2023-04-08T07:56:46.269Z,5.20
2023-04-08T07:59:15.216Z,5.20
2023-04-08T08:05:13.712Z,5.20
2023-04-08T08:07:54.954Z,5.10
2023-04-08T08:10:36.183Z,5.10
2023-04-08T08:13:09.414Z,5.10
2023-04-08T08:15:41.332Z,5.10
2023-04-08T08:18:24.326Z,5.20
2023-04-08T08:21:10.686Z,5.20
2023-04-08T08:23:44.304Z,5.20
2023-04-08T08:29:21.407Z,5.30
2023-04-08T08:32:03.902Z,5.30
2023-04-08T08:34:39.361Z,5.30
2023-04-08T08:37:43.567Z,5.30
2023-04-08T08:40:16.592Z,5.20
2023-04-08T08:42:58.024Z,5.20
2023-04-08T08:45:34.475Z,5.10
2023-04-08T08:48:03.527Z,5.30
2023-04-08T08:50:32.947Z,5.50
2023-04-08T08:53:03.448Z,5.50
2023-04-08T08:55:56.747Z,5.50
2023-04-08T08:58:22.538Z,5.50
2023-04-08T09:00:51.030Z,5.40
2023-04-08T09:03:22.297Z,5.40
2023-04-08T09:05:55.578Z,5.40
2023-04-08T09:08:33.955Z,5.30
2023-04-08T09:11:18.460Z,5.20
2023-04-08T09:14:02.453Z,5.20
2023-04-08T09:16:39.205Z,5.20
2023-04-08T09:19:13.601Z,5.20
2023-04-08T09:21:42.580Z,5.10
2023-04-08T09:24:32.415Z,5.10
2023-04-08T09:27:01.383Z,5.00
2023-04-08T09:29:39.902Z,5.00
2023-04-08T09:32:11.644Z,5.10
2023-04-08T09:34:47.760Z,5.30
2023-04-08T09:37:19.525Z,5.40
2023-04-08T09:39:49.928Z,5.50
2023-04-08T09:42:25.599Z,5.50
2023-04-08T09:45:00.186Z,5.60
2023-04-08T09:47:32.544Z,5.40
2023-04-08T09:50:06.766Z,5.60
2023-04-08T09:52:40.309Z,5.80
2023-04-08T09:55:15.101Z,6.10
2023-04-08T09:57:48.106Z,6.30
2023-04-08T10:00:17.789Z,6.30
2023-04-08T10:02:58.017Z,6.00
2023-04-08T10:05:31.145Z,5.80
2023-04-08T10:08:02.717Z,5.70
2023-04-08T10:10:37.104Z,5.50
2023-04-08T10:13:06.653Z,5.40
2023-04-08T10:15:39.729Z,5.40
2023-04-08T10:18:44.316Z,5.40
2023-04-08T10:21:37.064Z,5.40
2023-04-08T10:24:11.889Z,5.50
2023-04-08T10:26:44.131Z,5.60
2023-04-08T10:29:46.418Z,5.60
2023-04-08T10:32:41.872Z,5.60
2023-04-08T10:35:22.187Z,5.30
2023-04-08T10:37:53.967Z,5.10
2023-04-08T10:40:27.421Z,5.00
2023-04-08T10:42:58.285Z,5.10
2023-04-08T10:45:26.737Z,5.20
2023-04-08T10:47:55.178Z,5.30
2023-04-08T10:50:28.933Z,5.30
2023-04-08T10:52:57.666Z,5.40
2023-04-08T10:55:29.097Z,5.40
2023-04-08T10:58:13.468Z,5.40
2023-04-08T11:00:42.614Z,5.20
2023-04-08T11:03:15.108Z,5.10
2023-04-08T11:05:48.434Z,5.00
2023-04-08T11:08:20.911Z,5.00
2023-04-08T11:10:51.864Z,5.00
2023-04-08T11:13:27.744Z,4.90
2023-04-08T11:16:03.065Z,4.80
2023-04-08T11:18:39.173Z,4.70
2023-04-08T11:21:14.129Z,4.70
2023-04-08T11:23:44.645Z,4.90
2023-04-08T11:26:13.347Z,5.10
2023-04-08T11:28:47.701Z,5.30
2023-04-08T11:31:24.537Z,5.50
2023-04-08T11:33:56.911Z,5.70
2023-04-08T11:36:26.239Z,5.90
2023-04-08T11:38:56.337Z,6.10
2023-04-08T11:41:24.908Z,6.80
2023-04-08T11:43:57.099Z,7.00
2023-04-08T11:46:26.819Z,7.00
2023-04-08T11:49:08.087Z,6.80
2023-04-08T11:51:56.424Z,6.70
2023-04-08T11:54:29.139Z,6.90
2023-04-08T11:57:01.247Z,7.20
2023-04-08T11:59:31.115Z,7.40
2023-04-08T12:01:59.551Z,7.60
2023-04-08T12:04:28.752Z,7.40
2023-04-08T12:07:05.038Z,7.10
2023-04-08T12:09:33.703Z,6.70
2023-04-08T12:12:08.024Z,6.40
2023-04-08T12:14:37.724Z,6.30
2023-04-08T12:17:06.177Z,6.30
2023-04-08T12:19:36.449Z,6.20
2023-04-08T12:22:06.221Z,6.10
2023-04-08T12:24:49.847Z,6.00
2023-04-08T12:27:23.693Z,6.00
2023-04-08T12:29:57.888Z,5.80
2023-04-08T12:32:26.417Z,5.80
2023-04-08T12:34:55.160Z,5.90
2023-04-08T12:37:23.983Z,6.00
2023-04-08T12:39:52.776Z,6.00
2023-04-08T12:42:21.183Z,5.90
2023-04-08T12:44:49.494Z,5.80
2023-04-08T12:47:24.312Z,5.70
2023-04-08T12:49:54.445Z,5.80
2023-04-08T12:52:23.080Z,5.80
2023-04-08T12:54:51.462Z,5.80
2023-04-08T12:57:19.803Z,5.80
2023-04-08T12:59:48.952Z,5.90
2023-04-08T13:02:19.046Z,5.90
2023-04-08T13:04:47.382Z,5.90
2023-04-08T13:07:15.719Z,5.80
2023-04-08T13:09:47.460Z,5.70
2023-04-08T13:12:16.437Z,5.70
2023-04-08T13:14:45.014Z,5.70
2023-04-08T13:17:13.432Z,5.80
2023-04-08T13:19:43.362Z,5.90
2023-04-08T13:22:14.619Z,6.00
2023-04-08T13:24:49.047Z,6.00
2023-04-08T13:27:23.490Z,5.80
2023-04-08T13:29:51.987Z,5.70
2023-04-08T13:32:23.029Z,5.60
2023-04-08T13:35:02.182Z,5.70
2023-04-08T13:37:38.258Z,5.70
2023-04-08T13:40:09.073Z,5.80
2023-04-08T13:42:37.763Z,6.00
2023-04-08T13:45:07.223Z,6.40
2023-04-08T13:47:37.939Z,6.70
2023-04-08T13:50:09.490Z,6.90
2023-04-08T13:52:38.034Z,7.00
2023-04-08T13:55:08.063Z,6.90
2023-04-08T13:57:36.718Z,6.70
2023-04-08T14:00:05.612Z,6.60
2023-04-08T14:02:34.728Z,6.70
2023-04-08T14:05:08.886Z,6.60
2023-04-08T14:07:37.455Z,6.50
2023-04-08T14:10:07.871Z,6.30
2023-04-08T14:12:42.303Z,6.30
2023-04-08T14:15:11.720Z,6.40
2023-04-08T14:17:49.834Z,6.40
2023-04-08T14:20:22.806Z,6.40
2023-04-08T14:22:54.619Z,6.40
2023-04-08T14:25:23.481Z,6.40
2023-04-08T14:27:58.519Z,6.30
2023-04-08T14:30:27.951Z,6.00
2023-04-08T14:32:56.790Z,5.80
2023-04-08T14:35:32.764Z,5.80
2023-04-08T14:38:08.144Z,5.90
2023-04-08T14:40:37.924Z,6.00
2023-04-08T14:43:09.426Z,5.90
2023-04-08T14:45:40.591Z,6.00
2023-04-08T14:48:09.231Z,6.00
2023-04-08T14:50:40.813Z,6.00
2023-04-08T14:53:14.101Z,5.90
2023-04-08T14:55:42.992Z,5.80
2023-04-08T14:58:14.958Z,5.80
2023-04-08T15:00:47.909Z,5.90
2023-04-08T15:03:28.558Z,5.90
2023-04-08T15:06:06.099Z,5.80
2023-04-08T15:08:35.756Z,5.80
2023-04-08T15:11:04.218Z,5.70
2023-04-08T15:13:33.090Z,5.60
2023-04-08T15:16:03.515Z,5.60
2023-04-08T15:18:36.308Z,5.70
2023-04-08T15:21:06.667Z,5.70
2023-04-08T15:23:44.737Z,5.80
2023-04-08T15:26:19.171Z,5.80
2023-04-08T15:28:50.812Z,5.80
2023-04-08T15:31:19.791Z,5.80
2023-04-08T15:33:51.392Z,5.90
2023-04-08T15:36:21.791Z,5.90
2023-04-08T15:38:54.113Z,6.00
2023-04-08T15:41:32.527Z,6.00
2023-04-08T15:44:00.928Z,6.00
2023-04-08T15:46:32.472Z,6.00
2023-04-08T15:49:04.350Z,6.00
2023-04-08T15:51:35.050Z,6.00
2023-04-08T15:54:03.387Z,6.10
2023-04-08T15:56:31.692Z,6.20
2023-04-08T15:59:03.865Z,6.20
2023-04-08T16:01:33.450Z,6.10
2023-04-08T16:04:02.595Z,6.00
2023-04-08T16:06:31.390Z,6.00
2023-04-08T16:09:01.327Z,6.00
2023-04-08T16:11:30.240Z,6.00
2023-04-08T16:13:58.822Z,6.00
2023-04-08T16:16:27.241Z,6.10
2023-04-08T16:18:58.565Z,6.20
2023-04-08T16:21:26.966Z,6.10
2023-04-08T16:23:55.631Z,6.10
2023-04-08T16:26:30.146Z,6.00
2023-04-08T16:28:59.502Z,6.10
2023-04-08T16:33:59.837Z,6.00
2023-04-08T16:36:28.357Z,5.90
2023-04-08T16:38:57.476Z,5.70
2023-04-08T16:41:50.543Z,5.60
2023-04-08T16:44:22.259Z,5.60
2023-04-08T16:46:51.025Z,5.50
2023-04-08T16:49:19.618Z,5.40
2023-04-08T16:51:48.254Z,5.30
2023-04-08T16:54:17.009Z,5.30
2023-04-08T16:56:49.683Z,5.20
2023-04-08T16:59:18.324Z,5.20
2023-04-08T17:01:46.863Z,5.10
2023-04-08T17:04:15.535Z,5.00
2023-04-08T17:06:44.143Z,4.90
2023-04-08T17:09:12.834Z,4.90
2023-04-08T17:11:41.451Z,4.80
2023-04-08T17:14:11.199Z,4.70
2023-04-08T17:16:39.506Z,4.70
2023-04-08T17:19:07.826Z,4.60
2023-04-08T17:21:36.341Z,4.50
2023-04-08T17:24:04.842Z,4.40
2023-04-08T17:26:33.450Z,4.30
2023-04-08T17:29:01.746Z,4.20
2023-04-08T17:31:31.697Z,4.00
2023-04-08T17:34:00.158Z,3.90
2023-04-08T17:36:30.426Z,3.70
2023-04-08T17:39:05.030Z,3.50
2023-04-08T17:41:40.543Z,3.40
2023-04-08T17:44:09.457Z,3.20
2023-04-08T17:46:39.323Z,3.00
2023-04-08T17:49:07.657Z,2.90
2023-04-08T17:51:36.159Z,2.70
2023-04-08T17:54:07.716Z,2.50
2023-04-08T17:56:36.216Z,2.40
2023-04-08T17:59:04.645Z,2.30
2023-04-08T18:01:33.385Z,2.10
2023-04-08T18:04:06.936Z,2.00
2023-04-08T18:06:35.631Z,1.90
2023-04-08T18:09:04.736Z,1.70
2023-04-08T18:11:36.362Z,1.60
2023-04-08T18:14:07.829Z,1.50
2023-04-08T18:16:39.321Z,1.40
2023-04-08T18:19:11.504Z,1.30
2023-04-08T18:21:39.946Z,1.20
2023-04-08T18:24:11.926Z,1.10
2023-04-08T18:26:51.753Z,1.00
2023-04-08T18:29:32.567Z,1.00
2023-04-08T18:32:02.357Z,1.00
2023-04-08T18:34:35.997Z,0.90
2023-04-08T18:37:07.441Z,0.80
2023-04-08T18:39:36.057Z,0.80
2023-04-08T18:42:15.988Z,0.80
2023-04-08T18:44:47.733Z,0.90
2023-04-08T18:47:20.441Z,0.80
2023-04-08T18:49:58.766Z,0.70
2023-04-08T18:52:35.199Z,0.60
2023-04-08T18:55:06.388Z,0.60
2023-04-08T18:57:39.865Z,0.50
2023-04-08T19:00:15.146Z,0.40
2023-04-08T19:02:48.097Z,0.30
2023-04-08T19:05:21.375Z,0.30
2023-04-08T19:08:02.686Z,0.30
2023-04-08T19:10:37.048Z,0.30
2023-04-08T19:13:05.959Z,0.30
2023-04-08T19:15:37.790Z,0.20
2023-04-08T19:18:10.658Z,0.10
2023-04-08T19:21:08.641Z,0.00
2023-04-08T19:23:39.901Z,-0.10
2023-04-08T19:26:22.785Z,-0.10
2023-04-08T19:28:56.710Z,0.10
2023-04-08T19:31:25.586Z,0.20
2023-04-08T19:33:54.695Z,0.20
2023-04-08T19:39:47.832Z,0.00
2023-04-08T19:42:16.485Z,-0.10
2023-04-08T19:44:45.176Z,-0.20
2023-04-08T19:47:14.068Z,-0.20
2023-04-08T19:52:34.728Z,-0.20
2023-04-08T19:55:11.205Z,-0.30
2023-04-08T19:57:48.398Z,-0.30
2023-04-08T20:00:20.865Z,-0.40
2023-04-08T20:02:53.182Z,-0.50
2023-04-08T20:09:41.910Z,-0.60
2023-04-08T20:18:22.026Z,-0.60
2023-04-08T20:21:30.981Z,-0.50
2023-04-08T20:24:20.271Z,-0.50
2023-04-08T20:30:39.867Z,-0.50
2023-04-08T20:36:29.887Z,-0.40
2023-04-08T20:47:42.466Z,-0.60
2023-04-08T20:51:09.123Z,-0.70
2023-04-08T20:54:02.813Z,-0.80
2023-04-08T21:10:18.102Z,-1.20
2023-04-08T21:13:02.679Z,-1.20
2023-04-08T21:15:38.586Z,-1.20
2023-04-08T21:24:34.619Z,-1.20
2023-04-08T21:31:40.079Z,-1.30
2023-04-08T21:35:15.493Z,-1.40
2023-04-08T21:38:34.479Z,-1.50
2023-04-08T21:47:26.571Z,-1.30
2023-04-08T21:50:09.565Z,-1.40
2023-04-08T21:53:00.922Z,-1.40
2023-04-08T22:21:21.919Z,-1.40
2023-04-08T22:23:55.128Z,-1.50
2023-04-08T22:27:07.663Z,-1.40
2023-04-08T22:37:09.717Z,-1.30
2023-04-08T22:40:28.552Z,-1.40
2023-04-08T22:43:39.070Z,-1.40
2023-04-08T22:46:30.982Z,-1.40
2023-04-08T22:49:01.427Z,-1.40
2023-04-08T22:51:51.988Z,-1.30
2023-04-08T23:08:10.194Z,-0.90
2023-04-08T23:15:25.233Z,-0.80
2023-04-08T23:26:08.562Z,-0.60
2023-04-08T23:35:10.891Z,-0.50
2023-04-08T23:40:32.981Z,-0.40
2023-04-08T23:46:05.673Z,-0.30
2023-04-08T23:49:27.166Z,-0.30
2023-04-08T23:58:28.920Z,-0.20
